DNEN

Akanu Ibiam International Airport

Enegu, Nigeria
TAF DNEN 210935Z 2112/2218 26012KT 8000 BKN009 FEW019CB TEMPO 2115/2121 5000 -TSRA BECMG 2122/2124 19005KT SCT008 TEMPO 2203/2207 5000 -TSRA BKN008 FEW019CB
Issued Valid From Valid To
Jun-21 @ 09:35 UTC
(9 hours ago)
Jun-21 @ 12:00 UTC
(6 hours ago)
Jun-22 @ 18:00 UTC
(in 24 hours)
Jun-21 @ 12:00 to Jun-21 @ 22:00
TAF DNEN 210935Z 2112/2218 26012KT 8000 BKN009 FEW019CB
Wind Visibility Clouds
260° at 12 knots 7,998 meters
  • Broken at 900' AGL
  • Few at 1,900' AGL
Temporary Jun-21 @ 15:00 to Jun-21 @ 21:00
TEMPO 2115/2121 5000 -TSRA
Visibility Conditions
5,005 meters
  • Light Thunderstorm
  • Light Rain
Becoming Jun-21 @ 22:00 to Jun-22 @ 18:00
BECMG 2122/2124 19005KT SCT008
Wind Visibility Clouds
190° at 5 knots 7,998 meters
  • Scattered at 800' AGL
Temporary Jun-22 @ 03:00 to Jun-22 @ 07:00
TEMPO 2203/2207 5000 -TSRA BKN008 FEW019CB
Visibility Clouds Conditions
5,005 meters
  • Broken at 800' AGL
  • Few at 1,900' AGL
  • Light Thunderstorm
  • Light Rain
TAF DNEN 210935Z 2112/2218 26012KT 8000 BKN009 FEW019CB TEMPO 2115/2121 5000 -TSRA BECMG 2122/2124 19005KT SCT008 TEMPO 2203/2207 5000 -TSRA BKN008 FEW019CB
Issued Jun-21 @ 09:35 UTC
(9 hours ago)
Valid From Jun-21 @ 12:00 UTC
(6 hours ago)
Valid To Jun-22 @ 18:00 UTC
(in 24 hours)
Jun-21 @ 12:00 - Jun-21 @ 22:00
Wind Visibility
260° at 12 knots 7,998 meters
Clouds
  • Broken at 900' AGL
  • Few at 1,900' AGL
Temporary Jun-21 @ 15:00 - Jun-21 @ 21:00
Conditions
  • Light Thunderstorm
  • Light Rain
Becoming Jun-21 @ 22:00 - Jun-22 @ 18:00
Wind Visibility
190° at 5 knots 7,998 meters
Clouds
  • Scattered at 800' AGL
Temporary Jun-22 @ 03:00 - Jun-22 @ 07:00
Clouds
  • Broken at 800' AGL
  • Few at 1,900' AGL
Conditions
  • Light Thunderstorm
  • Light Rain